Time;durP1;ratioP1;P1;durP2;ratioP2;P2;SDS_P1;SDS_P2;PMS_P1;PMS_P2;Temp;Humidity;BMP_temperature;BMP_pressure;BME280_temperature;BME280_humidity;BME280_pressure;Samples;Min_cycle;Max_cycle;Signal;HPM_P1;HPM_P2
2021/12/10 00:00:37;;;;;;;24.87;16.83;;;;;;;7.47;73.84;93702.38;5089889;28;20190;-74
2021/12/10 00:03:06;;;;;;;26.47;16.63;;;;;;;7.65;73.88;93743.94;5089710;28;20661;-73
2021/12/10 00:05:44;;;;;;;24.40;16.70;;;;;;;7.63;73.78;93738.16;5090382;28;20193;-74
2021/12/10 00:08:11;;;;;;;25.40;15.97;;;;;;;7.68;73.89;93730.91;5090402;28;20177;-76
2021/12/10 00:10:42;;;;;;;22.77;15.60;;;;;;;7.68;73.60;93720.72;5089760;28;20661;-72
2021/12/10 00:13:10;;;;;;;23.87;16.73;;;;;;;7.70;73.67;93721.38;5090038;28;20193;-72
2021/12/10 00:15:40;;;;;;;24.20;16.60;;;;;;;7.72;73.85;93718.69;5089966;28;20193;-72
2021/12/10 00:18:10;;;;;;;24.53;15.83;;;;;;;7.73;73.99;93717.78;5089771;28;20198;-73
2021/12/10 00:20:42;;;;;;;23.80;17.03;;;;;;;7.62;73.78;93695.88;5089527;28;20197;-73
2021/12/10 00:23:12;;;;;;;22.67;15.40;;;;;;;7.76;73.87;93727.63;5089484;28;20189;-72
2021/12/10 00:25:41;;;;;;;25.50;16.40;;;;;;;7.62;73.88;93705.25;5090000;28;20178;-72
2021/12/10 00:28:14;;;;;;;24.00;17.37;;;;;;;7.79;73.84;93702.72;5089614;28;20201;-72
2021/12/10 00:30:59;;;;;;;28.13;16.53;;;;;;;7.79;73.90;93700.16;5089993;28;20186;-72
2021/12/10 00:33:29;;;;;;;23.40;15.87;;;;;;;7.80;73.83;93718.78;5089386;28;20197;-71
2021/12/10 00:35:56;;;;;;;21.70;15.37;;;;;;;7.82;73.86;93716.09;5089372;28;20221;-72
2021/12/10 00:38:24;;;;;;;22.07;15.23;;;;;;;7.81;73.79;93717.81;5089596;28;20623;-72
2021/12/10 00:40:51;;;;;;;24.93;16.43;;;;;;;7.83;73.87;93717.69;5089351;28;20553;-73
2021/12/10 00:43:18;;;;;;;23.30;17.10;;;;;;;7.84;73.95;93707.34;5089676;28;20618;-72
2021/12/10 00:45:47;;;;;;;24.00;15.40;;;;;;;7.85;73.99;93719.13;5091222;28;20610;-74
2021/12/10 00:48:14;;;;;;;23.33;16.87;;;;;;;7.87;73.95;93706.28;5093181;28;20190;-72
2021/12/10 00:50:45;;;;;;;22.97;16.23;;;;;;;7.88;74.06;93702.78;5092745;28;20193;-72
2021/12/10 00:53:12;;;;;;;22.70;16.37;;;;;;;7.89;74.01;93699.28;5093624;28;20227;-71
2021/12/10 00:55:39;;;;;;;22.13;14.63;;;;;;;7.90;74.03;93686.44;5094386;28;20192;-74
2021/12/10 00:58:07;;;;;;;29.57;16.77;;;;;;;7.91;74.02;93699.94;5095899;28;20202;-75
2021/12/10 01:00:37;;;;;;;23.30;16.10;;;;;;;7.91;74.09;93695.66;5093431;28;20615;-73
2021/12/10 01:03:10;;;;;;;24.83;15.93;;;;;;;7.92;74.10;93679.44;5078005;28;20299;-74
2021/12/10 01:05:37;;;;;;;24.60;16.70;;;;;;;7.90;74.48;93683.06;5073008;28;20654;-74
2021/12/10 01:08:05;;;;;;;21.93;16.13;;;;;;;7.95;74.24;93689.34;5072977;28;20186;-75
2021/12/10 01:10:35;;;;;;;23.37;15.63;;;;;;;7.87;74.22;93683.38;5073032;28;20650;-73
2021/12/10 01:13:06;;;;;;;24.20;15.93;;;;;;;7.97;74.27;93689.97;5072837;28;20183;-75
2021/12/10 01:15:53;;;;;;;22.60;15.93;;;;;;;7.96;74.17;93685.84;5072668;28;20194;-75
2021/12/10 01:24:06;;;;;;;24.40;16.67;;;;;;;7.98;74.52;93695.84;5030886;28;20195;-72
2021/12/10 01:26:55;;;;;;;25.30;15.33;;;;;;;7.86;74.47;93672.41;5034187;28;20923;-76
2021/12/10 01:29:29;;;;;;;23.57;14.73;;;;;;;7.99;74.50;93675.38;5033474;28;20227;-74
2021/12/10 01:31:56;;;;;;;24.37;14.63;;;;;;;8.00;74.41;93668.53;5032386;28;20682;-73
2021/12/10 01:34:25;;;;;;;20.63;14.37;;;;;;;8.00;74.60;93664.22;5032271;28;20200;-71
2021/12/10 01:36:52;;;;;;;19.23;13.10;;;;;;;8.02;74.64;93658.97;5029916;28;20188;-74
2021/12/10 01:39:22;;;;;;;17.63;13.30;;;;;;;7.93;74.58;93640.31;5030093;28;20599;-73
2021/12/10 01:41:58;;;;;;;18.17;12.60;;;;;;;8.05;74.66;93663.78;5029956;28;20216;-76
2021/12/10 01:44:30;;;;;;;20.37;12.23;;;;;;;8.05;74.59;93661.25;5030155;28;20569;-77
2021/12/10 01:47:00;;;;;;;16.20;11.13;;;;;;;8.05;74.72;93661.25;5029632;28;20199;-74
2021/12/10 01:49:29;;;;;;;14.67;11.43;;;;;;;8.07;74.69;93664.41;5029897;28;20207;-75
2021/12/10 01:51:56;;;;;;;13.37;10.63;;;;;;;8.08;74.81;93660.94;5029608;28;20195;-75
2021/12/10 01:54:26;;;;;;;16.03;11.10;;;;;;;8.09;74.88;93654.91;5029732;28;20192;-73
2021/12/10 01:56:55;;;;;;;12.30;9.93;;;;;;;8.11;74.89;93654.75;5029402;28;20184;-76
2021/12/10 01:59:24;;;;;;;20.93;10.90;;;;;;;7.88;74.63;93611.94;5029456;28;20199;-74
2021/12/10 02:01:54;;;;;;;13.97;10.53;;;;;;;8.12;74.95;93641.06;5071780;28;20280;-72
2021/12/10 02:04:24;;;;;;;17.00;10.60;;;;;;;8.13;74.94;93640.13;5071575;28;20186;-73
2021/12/10 02:06:53;;;;;;;14.90;10.13;;;;;;;8.08;74.92;93632.16;5071641;28;20209;-75
2021/12/10 02:09:21;;;;;;;16.00;11.20;;;;;;;7.95;74.87;93617.25;5071721;28;20209;-73
2021/12/10 02:11:48;;;;;;;12.83;9.87;;;;;;;7.92;75.13;93610.72;5071323;28;20194;-74
2021/12/10 02:14:15;;;;;;;14.50;10.50;;;;;;;8.09;75.05;93623.56;5071650;28;20193;-73
2021/12/10 02:16:43;;;;;;;13.80;10.37;;;;;;;8.16;75.05;93625.38;5071134;28;20206;-72
2021/12/10 02:19:11;;;;;;;13.07;9.77;;;;;;;8.12;74.94;93613.06;5071207;28;20200;-76
2021/12/10 02:21:40;;;;;;;16.47;10.77;;;;;;;8.17;75.19;93618.53;5071107;28;20215;-72
2021/12/10 02:24:10;;;;;;;13.23;9.70;;;;;;;8.16;75.13;93609.25;5070229;28;20194;-72
2021/12/10 02:26:41;;;;;;;15.77;10.47;;;;;;;8.17;75.28;93598.16;5071093;28;20693;-72
2021/12/10 02:29:09;;;;;;;15.87;9.87;;;;;;;8.17;75.05;93598.16;5071473;28;20197;-72
2021/12/10 02:31:37;;;;;;;14.90;10.40;;;;;;;8.17;75.22;93601.50;5071262;28;20190;-73
2021/12/10 02:34:05;;;;;;;13.27;9.63;;;;;;;8.17;75.22;93606.59;5071360;28;20281;-72
2021/12/10 02:36:32;;;;;;;14.20;10.00;;;;;;;8.17;75.23;93609.13;5070984;28;20671;-72
2021/12/10 02:39:01;;;;;;;13.73;9.70;;;;;;;8.17;75.31;93608.34;5070565;28;20295;-72
2021/12/10 02:41:30;;;;;;;11.77;9.03;;;;;;;8.17;75.39;93613.44;5071398;28;20574;-72
2021/12/10 02:43:57;;;;;;;13.10;10.37;;;;;;;8.18;75.18;93632.84;5071350;28;20195;-72
2021/12/10 02:46:25;;;;;;;13.00;10.10;;;;;;;8.18;75.54;93645.56;5071323;28;20194;-73
2021/12/10 02:48:52;;;;;;;12.30;9.83;;;;;;;8.19;75.44;93647.16;5071567;28;20194;-72
2021/12/10 02:51:18;;;;;;;13.53;9.50;;;;;;;8.19;75.56;93645.41;5070986;28;20186;-72
2021/12/10 02:53:46;;;;;;;14.83;9.87;;;;;;;8.19;75.48;93639.53;5071012;28;20273;-72
2021/12/10 02:56:18;;;;;;;18.87;10.03;;;;;;;8.19;75.59;93645.41;5071141;28;20194;-72
2021/12/10 02:58:48;;;;;;;15.23;9.63;;;;;;;8.19;75.53;93650.50;5070634;28;20186;-72
2021/12/10 03:01:21;;;;;;;17.90;10.33;;;;;;;8.01;75.58;93614.09;5070877;28;20190;-73
2021/12/10 03:03:47;;;;;;;11.57;9.53;;;;;;;8.09;75.66;93619.25;5070712;28;20332;-74
2021/12/10 03:06:17;;;;;;;14.20;9.30;;;;;;;8.22;75.43;93634.16;5070640;28;20194;-75
2021/12/10 03:08:49;;;;;;;16.53;10.30;;;;;;;8.22;75.79;93634.16;5070108;28;20653;-74
2021/12/10 03:11:20;;;;;;;15.03;10.70;;;;;;;8.22;75.51;93631.59;5071012;28;20178;-74
2021/12/10 03:13:47;;;;;;;12.10;9.57;;;;;;;8.21;75.87;93618.06;5070598;28;20256;-74
2021/12/10 03:16:15;;;;;;;12.90;9.53;;;;;;;8.22;75.77;93627.31;5071063;28;20291;-77
2021/12/10 03:18:42;;;;;;;13.57;9.80;;;;;;;8.21;75.73;93633.34;5070840;28;20197;-76
2021/12/10 03:21:11;;;;;;;14.03;9.47;;;;;;;8.14;76.04;93624.69;5071551;28;20217;-73
2021/12/10 03:23:42;;;;;;;13.50;9.13;;;;;;;8.23;75.99;93631.44;5072135;28;20236;-75
2021/12/10 03:26:10;;;;;;;14.97;10.07;;;;;;;8.21;75.96;93635.91;5072473;28;20711;-75
2021/12/10 03:28:39;;;;;;;17.10;11.13;;;;;;;8.22;75.96;93622.22;5072352;28;20195;-72
2021/12/10 03:31:07;;;;;;;13.63;11.43;;;;;;;8.10;75.85;93599.69;5071712;28;20650;-73
2021/12/10 03:33:34;;;;;;;16.73;12.10;;;;;;;8.25;76.05;93624.47;5071431;28;20685;-75
2021/12/10 03:36:01;;;;;;;12.90;10.70;;;;;;;8.27;76.21;93621.75;5070259;28;20265;-73
2021/12/10 03:38:28;;;;;;;13.77;11.57;;;;;;;8.21;75.96;93615.53;5070119;28;20228;-73
2021/12/10 03:40:59;;;;;;;12.97;10.77;;;;;;;8.28;76.09;93618.25;5070445;28;20691;-77
2021/12/10 03:43:28;;;;;;;13.87;11.17;;;;;;;8.30;76.35;93632.44;5070116;28;20207;-72
2021/12/10 03:45:58;;;;;;;12.93;10.23;;;;;;;8.32;76.58;93631.50;5070364;28;20568;-73
2021/12/10 03:48:28;;;;;;;14.23;10.93;;;;;;;8.31;76.49;93638.34;5070847;28;20197;-78
2021/12/10 03:50:56;;;;;;;14.70;10.53;;;;;;;8.33;76.54;93640.72;5069814;28;20198;-73
2021/12/10 03:53:23;;;;;;;13.07;10.43;;;;;;;8.33;76.65;93638.19;5069708;28;20197;-72
2021/12/10 03:55:51;;;;;;;11.70;9.80;;;;;;;8.34;76.55;93645.69;5069563;28;20186;-73
2021/12/10 03:58:18;;;;;;;16.53;10.30;;;;;;;8.35;76.68;93642.19;5070507;28;20190;-73
2021/12/10 04:00:49;;;;;;;14.13;9.40;;;;;;;8.36;76.59;93635.34;5069782;28;20190;-73
2021/12/10 04:03:20;;;;;;;14.70;9.70;;;;;;;8.37;76.62;93642.84;5069910;28;20229;-73
2021/12/10 04:05:47;;;;;;;12.00;9.47;;;;;;;8.25;76.57;93614.28;5069501;28;20201;-73
2021/12/10 04:08:15;;;;;;;13.47;8.87;;;;;;;8.36;76.75;93625.16;5069932;28;20201;-72
2021/12/10 04:10:43;;;;;;;12.33;9.47;;;;;;;8.40;76.74;93627.28;5069656;28;20554;-75
2021/12/10 04:13:11;;;;;;;14.33;9.60;;;;;;;8.40;76.94;93616.28;5069530;28;20186;-72
2021/12/10 04:15:40;;;;;;;12.83;8.43;;;;;;;8.31;76.80;93620.50;5069963;28;20271;-74
2021/12/10 04:18:08;;;;;;;12.47;8.97;;;;;;;8.43;76.88;93641.47;5069761;28;20186;-72
2021/12/10 04:20:37;;;;;;;13.23;8.93;;;;;;;8.44;76.90;93643.06;5070968;28;20614;-72
2021/12/10 04:23:07;;;;;;;12.20;9.17;;;;;;;8.43;76.92;93649.91;5073566;28;20226;-73
2021/12/10 04:25:34;;;;;;;10.87;8.80;;;;;;;8.44;77.00;93638.75;5072287;28;20673;-75
2021/12/10 04:28:07;;;;;;;13.20;9.30;;;;;;;8.45;76.90;93640.34;5073802;28;20191;-72
2021/12/10 04:30:39;;;;;;;9.87;8.07;;;;;;;8.47;77.19;93645.31;5073622;28;20198;-73
2021/12/10 04:33:06;;;;;;;13.20;9.37;;;;;;;8.47;77.22;93640.22;5073343;28;20281;-74
2021/12/10 04:35:34;;;;;;;11.63;8.10;;;;;;;8.48;77.21;93649.47;5072878;28;20201;-73
2021/12/10 04:38:03;;;;;;;10.13;7.90;;;;;;;8.40;77.51;93637.47;5073189;28;20233;-72
2021/12/10 04:40:29;;;;;;;10.93;8.17;;;;;;;8.49;77.34;93658.69;5072992;28;20194;-72
2021/12/10 04:42:56;;;;;;;12.03;8.33;;;;;;;8.39;77.59;93635.88;5072884;28;20214;-76
2021/12/10 04:45:23;;;;;;;9.60;7.83;;;;;;;8.51;77.67;93654.25;5072849;28;20194;-72
2021/12/10 04:47:50;;;;;;;11.73;8.63;;;;;;;8.51;77.74;93654.25;5072796;28;20198;-73
2021/12/10 04:50:21;;;;;;;10.97;8.60;;;;;;;8.52;77.78;93659.19;5072941;28;20218;-72
2021/12/10 04:52:49;;;;;;;10.53;8.07;;;;;;;8.53;77.54;93658.25;5072909;28;20194;-73
2021/12/10 04:55:19;;;;;;;12.23;8.13;;;;;;;8.51;78.01;93644.88;5073158;28;20558;-72
2021/12/10 04:57:46;;;;;;;10.80;8.07;;;;;;;8.57;78.16;93652.84;5073350;28;20198;-72
2021/12/10 05:00:17;;;;;;;9.93;8.20;;;;;;;8.51;78.05;93654.25;5073252;28;20182;-71
2021/12/10 05:02:44;;;;;;;11.00;8.87;;;;;;;8.54;77.95;93647.09;5072782;28;20214;-72
2021/12/10 05:05:12;;;;;;;12.77;8.80;;;;;;;8.61;78.26;93657.50;5073371;28;20312;-74
2021/12/10 05:07:39;;;;;;;12.07;8.23;;;;;;;8.62;78.33;93659.06;5072927;28;20272;-73
2021/12/10 05:10:09;;;;;;;9.87;8.13;;;;;;;8.63;78.36;93658.13;5073146;28;20186;-74
2021/12/10 05:12:37;;;;;;;11.37;8.27;;;;;;;8.64;78.28;93662.28;5072971;28;20552;-76
2021/12/10 05:15:06;;;;;;;11.43;8.80;;;;;;;8.66;78.50;93657.03;5072610;28;20190;-76
2021/12/10 05:17:34;;;;;;;13.63;8.97;;;;;;;8.66;78.39;93657.03;5072933;28;20206;-76
2021/12/10 05:20:06;;;;;;;9.57;8.57;;;;;;;8.67;78.39;93666.28;5073329;28;20213;-77
2021/12/10 05:22:33;;;;;;;13.80;8.50;;;;;;;8.69;78.43;93654.19;5073370;28;20241;-75
2021/12/10 05:25:00;;;;;;;9.87;8.20;;;;;;;8.69;78.41;93644.78;5073186;28;20186;-73
2021/12/10 05:27:27;;;;;;;11.43;8.97;;;;;;;8.71;78.31;93654.81;5072403;28;20191;-76
2021/12/10 05:29:56;;;;;;;11.80;9.13;;;;;;;8.71;78.42;93663.25;5072632;28;20571;-76
2021/12/10 05:32:23;;;;;;;12.83;9.80;;;;;;;8.73;78.30;93670.78;5072175;28;20285;-76
2021/12/10 05:34:50;;;;;;;12.00;8.40;;;;;;;8.73;78.39;93663.13;5072562;28;20193;-75
2021/12/10 05:37:18;;;;;;;12.43;9.10;;;;;;;8.74;78.27;93655.31;5072464;28;20237;-77
2021/12/10 05:39:44;;;;;;;12.67;8.37;;;;;;;8.75;78.25;93648.47;5072802;28;20642;-76
2021/12/10 05:42:11;;;;;;;19.10;12.47;;;;;;;8.77;78.30;93655.03;5072411;28;20598;-76
2021/12/10 05:44:38;;;;;;;28.90;14.93;;;;;;;8.77;78.47;93647.38;5070117;28;20721;-73
2021/12/10 05:47:07;;;;;;;22.87;14.20;;;;;;;8.74;78.61;93639.22;5070344;28;20210;-79
2021/12/10 05:49:35;;;;;;;30.93;15.53;;;;;;;8.64;78.73;93623.28;5069846;28;20273;-77
2021/12/10 05:52:03;;;;;;;30.50;16.70;;;;;;;8.78;78.88;93637.97;5069900;28;20191;-76
2021/12/10 05:54:31;;;;;;;24.97;14.83;;;;;;;8.76;78.98;93642.41;5069657;28;20190;-75
2021/12/10 05:56:58;;;;;;;23.50;14.10;;;;;;;8.79;78.96;93637.03;5069453;28;20198;-75
2021/12/10 05:59:25;;;;;;;24.73;13.50;;;;;;;8.79;79.02;93642.13;5069151;28;20201;-77
2021/12/10 06:01:52;;;;;;;23.10;12.80;;;;;;;8.77;79.36;93632.09;5069292;28;20190;-77
2021/12/10 06:04:23;;;;;;;21.00;13.57;;;;;;;8.78;79.51;93626.03;5069076;28;20229;-74
2021/12/10 06:06:50;;;;;;;21.40;13.27;;;;;;;8.80;79.46;93630.97;5069533;28;20285;-74
2021/12/10 06:09:17;;;;;;;20.30;13.17;;;;;;;8.65;79.57;93618.00;5068997;28;20194;-76
2021/12/10 06:11:44;;;;;;;16.83;11.10;;;;;;;8.80;79.59;93638.63;5069327;28;20221;-78
2021/12/10 06:14:11;;;;;;;17.87;12.10;;;;;;;8.81;79.46;93637.69;5069000;28;20560;-74
2021/12/10 06:16:38;;;;;;;17.43;11.70;;;;;;;8.82;79.60;93641.81;5069087;28;20669;-74
2021/12/10 06:19:07;;;;;;;18.57;11.77;;;;;;;8.84;79.63;93657.75;5068959;28;20694;-75
2021/12/10 06:21:36;;;;;;;16.00;11.40;;;;;;;8.85;79.62;93649.19;5068606;28;20635;-72
2021/12/10 06:24:05;;;;;;;16.47;12.50;;;;;;;8.88;79.35;93658.25;5068799;28;20214;-78
2021/12/10 06:26:32;;;;;;;19.00;11.80;;;;;;;8.89;79.47;93653.00;5068932;28;20202;-77
2021/12/10 06:28:59;;;;;;;12.53;10.27;;;;;;;8.89;79.43;93647.88;5068441;28;20209;-74
2021/12/10 06:31:27;;;;;;;14.73;11.27;;;;;;;8.91;79.61;93648.56;5069088;28;20187;-72
2021/12/10 06:33:54;;;;;;;13.10;10.23;;;;;;;8.91;79.37;93651.09;5068779;28;20182;-72
2021/12/10 06:36:21;;;;;;;12.97;9.60;;;;;;;8.90;79.79;93639.31;5068238;28;20202;-75
2021/12/10 06:38:50;;;;;;;14.17;7.10;;;;;;;9.57;100.00;93634.22;5068474;28;20226;-74
2021/12/10 06:41:17;;;;;;;15.87;11.47;;;;;;;9.96;100.00;93634.41;5068084;28;20258;-74
2021/12/10 06:43:45;;;;;;;13.43;10.27;;;;;;;10.11;100.00;93615.88;5067473;28;20222;-72
2021/12/10 06:46:12;;;;;;;11.77;9.57;;;;;;;10.15;100.00;93597.53;5068479;28;20201;-73
2021/12/10 06:48:39;;;;;;;13.33;9.20;;;;;;;10.19;99.16;93621.78;5068702;28;20197;-73
2021/12/10 06:51:09;;;;;;;11.10;9.80;;;;;;;10.19;95.70;93633.72;5067971;28;20194;-77
2021/12/10 06:53:38;;;;;;;12.20;8.67;;;;;;;10.18;93.03;93624.47;5068532;28;20190;-78
2021/12/10 06:56:07;;;;;;;12.50;9.23;;;;;;;9.94;90.97;93594.66;5076241;28;20206;-78
2021/12/10 06:58:35;;;;;;;11.40;9.53;;;;;;;10.15;89.41;93617.16;5088867;28;20287;-77
2021/12/10 07:01:05;;;;;;;12.77;9.60;;;;;;;10.03;88.00;93614.13;5088270;28;20204;-78
2021/12/10 07:03:32;;;;;;;13.53;9.80;;;;;;;10.17;86.96;93640.78;5089087;28;20323;-79
2021/12/10 07:06:01;;;;;;;11.20;9.27;;;;;;;9.57;86.09;93544.88;5088431;28;20208;-75
2021/12/10 07:08:31;;;;;;;17.23;10.57;;;;;;;10.13;85.51;93640.28;5088212;28;20648;-76
2021/12/10 07:10:59;;;;;;;15.00;9.90;;;;;;;10.11;84.84;93649.88;5085261;28;20205;-78
2021/12/10 07:13:28;;;;;;;11.87;9.93;;;;;;;10.04;84.46;93639.50;5087456;28;20189;-79
2021/12/10 07:15:55;;;;;;;12.30;9.83;;;;;;;10.05;83.88;93642.84;5087588;28;20193;-77
2021/12/10 07:18:23;;;;;;;12.73;10.43;;;;;;;10.03;83.80;93639.69;5087233;28;20206;-79
2021/12/10 07:20:52;;;;;;;11.17;9.30;;;;;;;10.01;83.30;93655.13;5086845;28;20190;-76
2021/12/10 07:23:19;;;;;;;12.23;9.70;;;;;;;9.79;82.82;93618.28;5087404;28;20696;-78
2021/12/10 07:25:47;;;;;;;16.37;11.60;;;;;;;9.97;82.53;93653.06;5087715;28;20201;-79
2021/12/10 07:28:14;;;;;;;16.03;11.03;;;;;;;9.95;82.09;93647.34;5087592;28;20239;-76
2021/12/10 07:30:43;;;;;;;15.37;11.07;;;;;;;9.89;81.75;93625.78;5087227;28;20201;-77
2021/12/10 07:33:10;;;;;;;14.10;11.37;;;;;;;9.97;81.40;93638.56;5086667;28;20197;-76
2021/12/10 07:35:38;;;;;;;13.67;11.17;;;;;;;9.91;81.06;93616.22;5086696;28;20246;-77
2021/12/10 07:38:06;;;;;;;19.80;12.17;;;;;;;10.07;80.74;93640.16;5086473;28;20236;-77
2021/12/10 07:40:36;;;;;;;17.27;12.67;;;;;;;10.07;80.42;93638.41;5087522;28;20205;-78
2021/12/10 07:43:03;;;;;;;17.47;13.37;;;;;;;10.16;80.11;93639.19;5086864;28;20189;-74
2021/12/10 07:45:30;;;;;;;16.43;12.90;;;;;;;10.20;79.86;93628.50;5087507;28;20198;-77
2021/12/10 07:48:03;;;;;;;17.33;13.13;;;;;;;10.20;79.63;93643.81;5087281;28;20194;-78
2021/12/10 07:50:34;;;;;;;22.10;14.30;;;;;;;10.12;79.44;93613.16;5088100;28;20274;-76
2021/12/10 07:53:02;;;;;;;22.87;15.13;;;;;;;10.36;79.24;93640.44;5084345;28;20192;-76
2021/12/10 07:55:33;;;;;;;19.03;14.73;;;;;;;10.41;78.96;93637.44;5091196;28;20565;-78
2021/12/10 07:58:00;;;;;;;19.87;15.27;;;;;;;10.45;78.73;93633.59;5092028;28;20660;-78
2021/12/10 08:00:30;;;;;;;20.20;14.93;;;;;;;10.49;78.63;93622.06;5094939;28;20196;-79
2021/12/10 08:02:58;;;;;;;20.53;14.97;;;;;;;10.49;78.42;93627.16;5092081;28;20695;-76
2021/12/10 08:05:26;;;;;;;24.37;15.43;;;;;;;10.60;78.28;93638.81;5092306;28;20216;-74
2021/12/10 08:07:54;;;;;;;21.77;16.70;;;;;;;10.58;78.22;93639.00;5091712;28;20198;-75
2021/12/10 08:10:21;;;;;;;19.60;13.40;;;;;;;10.89;89.97;93636.50;5091279;28;20208;-73
2021/12/10 08:12:48;;;;;;;23.40;16.13;;;;;;;11.20;87.33;93640.84;5091774;28;20196;-75
2021/12/10 08:15:16;;;;;;;21.13;14.50;;;;;;;11.41;84.21;93635.16;5091213;28;20572;-76
2021/12/10 08:17:44;;;;;;;20.83;14.70;;;;;;;11.67;82.14;93635.63;5090823;28;20186;-74
2021/12/10 08:20:18;;;;;;;19.23;14.57;;;;;;;11.87;81.45;93656.47;5089591;28;20268;-73
2021/12/10 08:22:45;;;;;;;23.33;15.93;;;;;;;12.02;80.91;93644.53;5091406;28;20613;-74
2021/12/10 08:25:12;;;;;;;21.20;15.30;;;;;;;12.24;79.74;93653.16;5090955;28;20214;-75
2021/12/10 08:27:39;;;;;;;24.07;17.13;;;;;;;12.39;79.01;93654.94;5091113;28;20641;-73
2021/12/10 08:30:09;;;;;;;26.20;17.73;;;;;;;12.46;78.27;93632.78;5090444;28;20201;-74
2021/12/10 08:32:36;;;;;;;21.07;17.67;;;;;;;12.88;76.93;93644.22;5091303;28;20967;-73
2021/12/10 08:35:06;;;;;;;23.43;17.63;;;;;;;13.06;75.89;93652.34;5094830;28;20922;-73
2021/12/10 08:37:35;;;;;;;22.00;17.27;;;;;;;13.11;75.17;93650.03;5097448;28;20225;-72
2021/12/10 08:40:03;;;;;;;25.13;19.83;;;;;;;13.12;74.72;93643.91;5102318;28;20194;-74
2021/12/10 08:42:30;;;;;;;32.13;23.43;;;;;;;13.18;74.32;93634.72;5106365;28;20712;-77
2021/12/10 08:44:57;;;;;;;39.47;29.20;;;;;;;13.26;73.66;93643.13;5104766;28;20201;-73
2021/12/10 08:47:24;;;;;;;39.93;30.60;;;;;;;13.29;73.11;93644.53;5103754;28;20182;-74
2021/12/10 08:49:51;;;;;;;52.10;37.17;;;;;;;13.26;72.93;93650.84;5107230;28;20185;-73
2021/12/10 08:52:19;;;;;;;54.60;38.80;;;;;;;13.22;72.45;93638.53;5106640;28;20190;-77
2021/12/10 08:54:47;;;;;;;49.87;38.63;;;;;;;13.10;72.28;93627.91;5107172;28;20213;-72
2021/12/10 08:57:15;;;;;;;59.47;41.50;;;;;;;13.15;71.80;93622.22;5108036;28;20194;-74
2021/12/10 08:59:42;;;;;;;56.73;39.37;;;;;;;13.26;71.59;93643.13;5105805;28;20579;-73
2021/12/10 09:02:12;;;;;;;57.87;40.20;;;;;;;13.21;71.22;93644.59;5106188;28;20411;-73
2021/12/10 09:04:39;;;;;;;60.03;41.40;;;;;;;13.12;71.37;93645.69;5103693;28;20209;-72
2021/12/10 09:07:08;;;;;;;52.77;38.30;;;;;;;13.03;71.30;93643.22;5090679;28;20217;-75
2021/12/10 09:09:36;;;;;;;51.47;37.37;;;;;;;12.91;71.00;93636.13;5093185;28;20193;-72
2021/12/10 09:12:10;;;;;;;56.63;37.63;;;;;;;12.94;70.83;93651.97;5104353;28;20197;-74
2021/12/10 09:14:41;;;;;;;54.60;38.63;;;;;;;12.90;70.79;93645.59;5100664;28;20205;-77
2021/12/10 09:17:09;;;;;;;56.67;39.03;;;;;;;12.90;70.92;93634.56;5101253;28;20186;-74
2021/12/10 09:19:37;;;;;;;64.27;41.50;;;;;;;12.92;70.37;93630.84;5095850;28;20193;-76
2021/12/10 09:22:05;;;;;;;60.33;40.70;;;;;;;12.95;70.11;93604.00;5092152;28;20197;-75
2021/12/10 09:24:32;;;;;;;65.40;44.23;;;;;;;12.97;70.16;93625.19;5090396;28;20210;-76
2021/12/10 09:27:01;;;;;;;65.17;44.73;;;;;;;12.95;70.17;93642.50;5090377;28;20194;-73
2021/12/10 09:29:35;;;;;;;73.80;48.63;;;;;;;12.89;70.05;93644.03;5087451;28;20193;-75
2021/12/10 09:32:03;;;;;;;69.23;47.27;;;;;;;12.84;70.12;93640.41;5089526;28;20206;-73
2021/12/10 09:34:30;;;;;;;68.93;47.93;;;;;;;12.79;70.19;93636.59;5089159;28;20190;-72
2021/12/10 09:36:57;;;;;;;76.50;50.43;;;;;;;12.78;70.16;93629.88;5088954;28;20198;-74
2021/12/10 09:39:24;;;;;;;78.20;48.80;;;;;;;12.77;70.12;93605.19;5089384;28;20197;-73
2021/12/10 09:41:53;;;;;;;74.23;46.30;;;;;;;12.78;69.97;93596.53;5089311;28;20189;-74
2021/12/10 09:44:20;;;;;;;76.23;47.30;;;;;;;12.81;69.90;93611.53;5089033;28;20218;-74
2021/12/10 09:46:49;;;;;;;70.80;46.00;;;;;;;12.95;69.63;93598.88;5089172;28;20193;-74
2021/12/10 09:49:17;;;;;;;71.47;45.37;;;;;;;13.14;69.02;93577.00;5088532;28;20196;-72
2021/12/10 09:51:47;;;;;;;68.20;44.20;;;;;;;13.30;68.51;93587.09;5088557;28;20197;-74
2021/12/10 09:54:18;;;;;;;67.80;43.13;;;;;;;13.50;68.45;93602.69;5087428;28;20202;-74
2021/12/10 09:56:49;;;;;;;62.63;42.37;;;;;;;13.69;67.99;93578.97;5094461;28;20229;-75
2021/12/10 09:59:17;;;;;;;59.67;39.60;;;;;;;13.86;67.77;93582.09;5089475;28;20242;-72
2021/12/10 10:01:47;;;;;;;57.13;38.87;;;;;;;13.99;67.59;93600.19;5087922;28;20232;-71
2021/12/10 10:04:19;;;;;;;53.87;37.17;;;;;;;14.05;67.49;93570.38;5091856;28;20632;-74
2021/12/10 10:06:48;;;;;;;55.57;37.57;;;;;;;14.09;67.40;93581.88;5089234;28;20194;-72
2021/12/10 10:09:17;;;;;;;56.87;37.10;;;;;;;14.08;67.10;93561.50;5087975;28;20224;-73
2021/12/10 10:11:45;;;;;;;53.47;38.20;;;;;;;14.11;67.02;93551.63;5088569;28;20201;-74
2021/12/10 10:14:12;;;;;;;52.27;36.80;;;;;;;14.24;66.82;93558.63;5088671;28;20292;-73
2021/12/10 10:16:43;;;;;;;54.50;36.73;;;;;;;14.36;66.36;93553.78;5092019;28;20197;-75
2021/12/10 10:19:11;;;;;;;53.00;36.50;;;;;;;14.38;65.85;93542.31;5091602;28;20200;-74
2021/12/10 10:21:42;;;;;;;50.93;36.23;;;;;;;14.53;65.68;93563.59;5088615;28;20262;-76
2021/12/10 10:24:11;;;;;;;50.30;33.93;;;;;;;14.52;65.56;93556.88;5090074;28;20320;-75
2021/12/10 10:26:41;;;;;;;46.33;33.63;;;;;;;14.53;65.61;93553.31;5090252;28;20243;-76
2021/12/10 10:29:13;;;;;;;44.43;33.67;;;;;;;14.52;65.32;93554.31;5089881;28;20193;-76
2021/12/10 10:31:46;;;;;;;42.23;32.77;;;;;;;14.53;65.42;93548.16;5087981;28;20673;-76
2021/12/10 10:34:14;;;;;;;42.20;29.27;;;;;;;14.60;65.44;93535.34;5090373;28;20314;-75
2021/12/10 10:36:43;;;;;;;39.37;27.80;;;;;;;14.66;65.19;93531.22;5090282;28;20186;-74
2021/12/10 10:39:14;;;;;;;43.53;29.53;;;;;;;14.71;65.11;93516.00;5089423;28;20221;-73
2021/12/10 10:41:43;;;;;;;36.87;26.00;;;;;;;14.76;65.00;93522.13;5089904;28;20680;-74
2021/12/10 10:44:10;;;;;;;37.97;27.47;;;;;;;14.70;64.98;93507.47;5089578;28;20194;-74
2021/12/10 10:46:38;;;;;;;37.00;28.53;;;;;;;14.61;64.65;93488.03;5088939;28;20185;-74
2021/12/10 10:49:06;;;;;;;37.23;26.13;;;;;;;14.85;64.77;93521.97;5089494;28;20194;-75
2021/12/10 10:51:36;;;;;;;37.47;26.53;;;;;;;14.81;64.98;93524.16;5090151;28;20189;-77
2021/12/10 10:54:06;;;;;;;32.17;24.33;;;;;;;14.76;64.84;93529.06;5089491;28;20193;-73
2021/12/10 10:56:36;;;;;;;36.83;25.97;;;;;;;14.70;65.13;93530.63;5086897;28;20247;-72
2021/12/10 10:59:12;;;;;;;32.37;24.73;;;;;;;14.64;65.12;93531.41;5086351;28;20209;-73
2021/12/10 11:01:44;;;;;;;36.17;24.57;;;;;;;14.61;65.38;93520.69;5089168;28;20268;-74
2021/12/10 11:04:17;;;;;;;33.90;24.60;;;;;;;14.57;65.42;93524.63;5089082;28;20669;-73
2021/12/10 11:06:48;;;;;;;36.23;24.60;;;;;;;14.49;65.58;93518.66;5087459;28;20197;-72
2021/12/10 11:09:20;;;;;;;32.20;24.57;;;;;;;14.41;65.51;93523.94;5088524;28;20250;-73
2021/12/10 11:11:50;;;;;;;33.53;25.00;;;;;;;14.38;65.76;93520.94;5086823;28;20189;-72
2021/12/10 11:14:20;;;;;;;33.13;24.83;;;;;;;14.34;65.80;93517.19;5089295;28;20278;-76
2021/12/10 11:16:51;;;;;;;33.63;25.20;;;;;;;14.29;65.96;93515.16;5089523;28;20185;-73
2021/12/10 11:19:21;;;;;;;39.90;25.50;;;;;;;14.25;66.13;93521.69;5089643;28;20229;-75
2021/12/10 11:21:53;;;;;;;35.90;24.27;;;;;;;13.83;66.31;93464.25;5089478;28;20178;-79
2021/12/10 11:24:25;;;;;;;36.73;24.77;;;;;;;14.15;66.32;93513.50;5088391;28;20194;-73
2021/12/10 11:26:57;;;;;;;36.93;24.87;;;;;;;13.52;66.61;93441.50;5088603;28;20694;-75
2021/12/10 11:29:39;;;;;;;35.00;24.87;;;;;;;13.94;66.75;93509.19;5088413;28;20181;-76
2021/12/10 11:32:09;;;;;;;32.90;24.47;;;;;;;14.01;66.96;93515.97;5086027;28;20186;-72
2021/12/10 11:34:56;;;;;;;34.57;24.47;;;;;;;14.03;66.73;93508.88;5087934;28;20200;-79
2021/12/10 11:37:50;;;;;;;34.63;25.47;;;;;;;13.99;66.90;93496.59;5087408;28;20217;-76